sensor_id;sensor_type;location;lat;lon;timestamp;pressure;altitude;pressure_sealevel;temperature;humidity
9439;BME280;5176;42.622;25.386;2023-07-24T00:01:36;97433.38;;;22.88;91.52
9439;BME280;5176;42.622;25.386;2023-07-24T00:04:03;97430.34;;;22.99;89.43
9439;BME280;5176;42.622;25.386;2023-07-24T00:06:31;97438.50;;;23.06;89.34
9439;BME280;5176;42.622;25.386;2023-07-24T00:08:58;97439.47;;;23.13;89.05
9439;BME280;5176;42.622;25.386;2023-07-24T00:11:26;97439.47;;;23.21;88.88
9439;BME280;5176;42.622;25.386;2023-07-24T00:13:54;97440.09;;;23.31;88.29
9439;BME280;5176;42.622;25.386;2023-07-24T00:16:21;97443.56;;;23.40;87.03
9439;BME280;5176;42.622;25.386;2023-07-24T00:18:48;97436.03;;;23.44;87.94
9439;BME280;5176;42.622;25.386;2023-07-24T00:21:15;97433.69;;;23.49;88.38
9439;BME280;5176;42.622;25.386;2023-07-24T00:23:42;97435.88;;;23.45;88.05
9439;BME280;5176;42.622;25.386;2023-07-24T00:26:10;97428.16;;;23.50;88.98
9439;BME280;5176;42.622;25.386;2023-07-24T00:28:38;97424.13;;;23.54;90.17
9439;BME280;5176;42.622;25.386;2023-07-24T00:31:05;97423.78;;;23.57;90.33
9439;BME280;5176;42.622;25.386;2023-07-24T00:33:32;97425.63;;;23.57;92.42
9439;BME280;5176;42.622;25.386;2023-07-24T00:36:00;97424.31;;;23.61;91.46
9439;BME280;5176;42.622;25.386;2023-07-24T00:38:27;97423.75;;;23.65;87.58
9439;BME280;5176;42.622;25.386;2023-07-24T00:40:54;97422.59;;;23.68;86.57
9439;BME280;5176;42.622;25.386;2023-07-24T00:43:21;97424.59;;;23.66;85.98
9439;BME280;5176;42.622;25.386;2023-07-24T00:45:50;97425.13;;;23.61;86.99
9439;BME280;5176;42.622;25.386;2023-07-24T00:48:18;97425.13;;;23.61;87.72
9439;BME280;5176;42.622;25.386;2023-07-24T00:50:45;97413.03;;;23.65;88.44
9439;BME280;5176;42.622;25.386;2023-07-24T00:53:13;97419.59;;;23.63;87.91
9439;BME280;5176;42.622;25.386;2023-07-24T00:55:42;97419.78;;;23.61;86.93
9439;BME280;5176;42.622;25.386;2023-07-24T00:58:11;97424.94;;;23.63;86.31
9439;BME280;5176;42.622;25.386;2023-07-24T01:00:39;97416.91;;;23.63;86.84
9439;BME280;5176;42.622;25.386;2023-07-24T01:03:08;97421.63;;;23.61;86.98
9439;BME280;5176;42.622;25.386;2023-07-24T01:05:38;97423.59;;;23.59;87.80
9439;BME280;5176;42.622;25.386;2023-07-24T01:08:06;97426.97;;;23.53;86.76
9439;BME280;5176;42.622;25.386;2023-07-24T01:10:34;97425.84;;;23.39;86.35
9439;BME280;5176;42.622;25.386;2023-07-24T01:13:05;97417.72;;;23.24;85.86
9439;BME280;5176;42.622;25.386;2023-07-24T01:15:38;97420.63;;;23.15;86.54
9439;BME280;5176;42.622;25.386;2023-07-24T01:18:12;97421.63;;;23.05;87.00
9439;BME280;5176;42.622;25.386;2023-07-24T01:20:44;97427.84;;;22.98;88.45
9439;BME280;5176;42.622;25.386;2023-07-24T01:23:23;97429.34;;;22.92;88.02
9439;BME280;5176;42.622;25.386;2023-07-24T01:25:59;97424.19;;;22.91;88.87
9439;BME280;5176;42.622;25.386;2023-07-24T01:28:28;97422.53;;;22.90;88.19
9439;BME280;5176;42.622;25.386;2023-07-24T01:30:56;97419.66;;;22.91;88.69
9439;BME280;5176;42.622;25.386;2023-07-24T01:33:24;97419.19;;;22.88;88.10
9439;BME280;5176;42.622;25.386;2023-07-24T01:35:55;97430.03;;;22.94;88.12
9439;BME280;5176;42.622;25.386;2023-07-24T01:38:25;97430.34;;;22.99;88.10
9439;BME280;5176;42.622;25.386;2023-07-24T01:40:53;97432.19;;;22.99;87.41
9439;BME280;5176;42.622;25.386;2023-07-24T01:43:22;97433.00;;;22.99;87.23
9439;BME280;5176;42.622;25.386;2023-07-24T01:45:49;97431.34;;;22.98;85.59
9439;BME280;5176;42.622;25.386;2023-07-24T01:48:17;97422.69;;;22.88;85.05
9439;BME280;5176;42.622;25.386;2023-07-24T01:50:44;97426.03;;;22.74;84.51
9439;BME280;5176;42.622;25.386;2023-07-24T01:53:11;97430.53;;;22.73;84.44
9439;BME280;5176;42.622;25.386;2023-07-24T01:55:38;97413.03;;;22.63;84.60
9439;BME280;5176;42.622;25.386;2023-07-24T01:58:05;97432.19;;;22.66;84.58
9439;BME280;5176;42.622;25.386;2023-07-24T02:00:34;97440.06;;;22.43;84.65
9439;BME280;5176;42.622;25.386;2023-07-24T02:03:01;97434.22;;;22.32;86.83
9439;BME280;5176;42.622;25.386;2023-07-24T02:05:28;97436.59;;;22.35;87.50
9439;BME280;5176;42.622;25.386;2023-07-24T02:07:55;97421.06;;;22.22;86.76
9439;BME280;5176;42.622;25.386;2023-07-24T02:10:23;97441.41;;;22.23;86.83
9439;BME280;5176;42.622;25.386;2023-07-24T02:12:50;97436.56;;;22.10;87.09
9439;BME280;5176;42.622;25.386;2023-07-24T02:15:17;97432.31;;;21.99;88.57
9439;BME280;5176;42.622;25.386;2023-07-24T02:17:46;97440.66;;;21.88;89.80
9439;BME280;5176;42.622;25.386;2023-07-24T02:20:13;97436.66;;;21.84;90.91
9439;BME280;5176;42.622;25.386;2023-07-24T02:22:41;97438.47;;;21.84;92.08
9439;BME280;5176;42.622;25.386;2023-07-24T02:25:08;97418.97;;;21.75;92.45
9439;BME280;5176;42.622;25.386;2023-07-24T02:27:35;97433.13;;;21.75;93.83
9439;BME280;5176;42.622;25.386;2023-07-24T02:30:03;97428.63;;;21.76;94.54
9439;BME280;5176;42.622;25.386;2023-07-24T02:32:30;97431.75;;;21.63;97.58
9439;BME280;5176;42.622;25.386;2023-07-24T02:34:59;97430.75;;;21.64;99.03
9439;BME280;5176;42.622;25.386;2023-07-24T02:37:26;97438.47;;;21.67;99.38
9439;BME280;5176;42.622;25.386;2023-07-24T02:39:53;97431.25;;;21.60;100.00
9439;BME280;5176;42.622;25.386;2023-07-24T02:42:21;97426.78;;;21.60;100.00
9439;BME280;5176;42.622;25.386;2023-07-24T02:44:48;97429.94;;;21.72;100.00
9439;BME280;5176;42.622;25.386;2023-07-24T02:47:15;97425.13;;;21.75;100.00
9439;BME280;5176;42.622;25.386;2023-07-24T02:49:42;97423.47;;;21.83;100.00
9439;BME280;5176;42.622;25.386;2023-07-24T02:52:11;97426.97;;;21.83;100.00
9439;BME280;5176;42.622;25.386;2023-07-24T02:54:38;97425.66;;;21.87;100.00
9439;BME280;5176;42.622;25.386;2023-07-24T02:57:05;97421.16;;;21.88;100.00
9439;BME280;5176;42.622;25.386;2023-07-24T02:59:33;97427.81;;;21.92;100.00
9439;BME280;5176;42.622;25.386;2023-07-24T03:02:01;97426.03;;;22.00;100.00
9439;BME280;5176;42.622;25.386;2023-07-24T03:04:28;97430.84;;;22.05;98.99
9439;BME280;5176;42.622;25.386;2023-07-24T03:06:56;97424.00;;;22.02;94.47
9439;BME280;5176;42.622;25.386;2023-07-24T03:09:25;97430.66;;;21.98;91.97
9439;BME280;5176;42.622;25.386;2023-07-24T03:11:52;97433.16;;;21.92;91.48
9439;BME280;5176;42.622;25.386;2023-07-24T03:14:19;97441.69;;;21.87;91.78
9439;BME280;5176;42.622;25.386;2023-07-24T03:16:47;97438.00;;;21.88;92.71
9439;BME280;5176;42.622;25.386;2023-07-24T03:19:14;97438.16;;;21.87;92.99
9439;BME280;5176;42.622;25.386;2023-07-24T03:21:43;97438.00;;;21.80;95.03
9439;BME280;5176;42.622;25.386;2023-07-24T03:24:10;97427.81;;;21.75;96.24
9439;BME280;5176;42.622;25.386;2023-07-24T03:26:39;97431.13;;;21.77;97.66
9439;BME280;5176;42.622;25.386;2023-07-24T03:29:06;97429.47;;;21.85;96.31
9439;BME280;5176;42.622;25.386;2023-07-24T03:31:33;97432.31;;;21.75;98.25
9439;BME280;5176;42.622;25.386;2023-07-24T03:34:00;97432.31;;;21.75;100.00
9439;BME280;5176;42.622;25.386;2023-07-24T03:36:28;97428.28;;;21.71;100.00
9439;BME280;5176;42.622;25.386;2023-07-24T03:38:55;97432.13;;;21.68;100.00
9439;BME280;5176;42.622;25.386;2023-07-24T03:41:22;97431.78;;;21.71;100.00
9439;BME280;5176;42.622;25.386;2023-07-24T03:43:51;97431.31;;;21.76;100.00
9439;BME280;5176;42.622;25.386;2023-07-24T03:46:18;97430.97;;;21.79;100.00
9439;BME280;5176;42.622;25.386;2023-07-24T03:48:45;97440.31;;;21.83;100.00
9439;BME280;5176;42.622;25.386;2023-07-24T03:51:13;97434.97;;;21.75;100.00
9439;BME280;5176;42.622;25.386;2023-07-24T03:53:41;97425.97;;;21.76;100.00
9439;BME280;5176;42.622;25.386;2023-07-24T03:56:08;97428.81;;;21.74;100.00
9439;BME280;5176;42.622;25.386;2023-07-24T03:58:35;97428.28;;;21.71;100.00
9439;BME280;5176;42.622;25.386;2023-07-24T04:01:03;97431.78;;;21.71;100.00
9439;BME280;5176;42.622;25.386;2023-07-24T04:03:31;97429.81;;;21.73;100.00
9439;BME280;5176;42.622;25.386;2023-07-24T04:05:59;97437.13;;;21.71;100.00
9439;BME280;5176;42.622;25.386;2023-07-24T04:08:26;97434.44;;;21.71;100.00
9439;BME280;5176;42.622;25.386;2023-07-24T04:10:53;97439.44;;;21.66;100.00
9439;BME280;5176;42.622;25.386;2023-07-24T04:13:21;97420.75;;;21.58;100.00
9439;BME280;5176;42.622;25.386;2023-07-24T04:15:49;97412.91;;;21.57;100.00
9439;BME280;5176;42.622;25.386;2023-07-24T04:18:18;97436.63;;;21.68;100.00
9439;BME280;5176;42.622;25.386;2023-07-24T04:20:45;97436.63;;;21.68;100.00
9439;BME280;5176;42.622;25.386;2023-07-24T04:23:12;97432.13;;;21.68;100.00
9439;BME280;5176;42.622;25.386;2023-07-24T04:25:39;97435.28;;;21.72;100.00
9439;BME280;5176;42.622;25.386;2023-07-24T04:28:07;97435.81;;;21.75;100.00
9439;BME280;5176;42.622;25.386;2023-07-24T04:30:34;97434.13;;;21.74;100.00
9439;BME280;5176;42.622;25.386;2023-07-24T04:33:02;97425.59;;;21.71;100.00
9439;BME280;5176;42.622;25.386;2023-07-24T04:35:30;97429.44;;;21.68;100.00
9439;BME280;5176;42.622;25.386;2023-07-24T04:37:58;97429.75;;;21.65;100.00
9439;BME280;5176;42.622;25.386;2023-07-24T04:40:25;97429.63;;;21.67;100.00
9439;BME280;5176;42.622;25.386;2023-07-24T04:42:52;97430.44;;;21.67;100.00
9439;BME280;5176;42.622;25.386;2023-07-24T04:45:20;97425.31;;;21.74;100.00
9439;BME280;5176;42.622;25.386;2023-07-24T04:47:47;97433.31;;;21.74;100.00
9439;BME280;5176;42.622;25.386;2023-07-24T04:50:14;97425.31;;;21.74;100.00
9439;BME280;5176;42.622;25.386;2023-07-24T04:52:43;97427.31;;;21.80;100.00
9439;BME280;5176;42.622;25.386;2023-07-24T04:55:10;97432.13;;;21.85;100.00
9439;BME280;5176;42.622;25.386;2023-07-24T04:57:38;97438.16;;;21.87;100.00
9439;BME280;5176;42.622;25.386;2023-07-24T05:00:06;97430.97;;;21.79;100.00
9439;BME280;5176;42.622;25.386;2023-07-24T05:02:34;97441.97;;;21.84;100.00
9439;BME280;5176;42.622;25.386;2023-07-24T05:05:01;97439.00;;;21.87;100.00
9439;BME280;5176;42.622;25.386;2023-07-24T05:07:28;97435.81;;;21.92;100.00
9439;BME280;5176;42.622;25.386;2023-07-24T05:09:57;97429.47;;;21.93;100.00
9439;BME280;5176;42.622;25.386;2023-07-24T05:12:24;97435.66;;;21.93;100.00
9439;BME280;5176;42.622;25.386;2023-07-24T05:14:52;97432.97;;;21.93;100.00
9439;BME280;5176;42.622;25.386;2023-07-24T05:17:19;97436.00;;;21.98;100.00
9439;BME280;5176;42.622;25.386;2023-07-24T05:19:46;97439.19;;;22.02;100.00
9439;BME280;5176;42.622;25.386;2023-07-24T05:22:14;97450.69;;;22.02;100.00
9439;BME280;5176;42.622;25.386;2023-07-24T05:24:41;97450.88;;;22.01;100.00
9439;BME280;5176;42.622;25.386;2023-07-24T05:27:10;97449.19;;;22.00;100.00
9439;BME280;5176;42.622;25.386;2023-07-24T05:29:38;97442.34;;;21.97;100.00
9439;BME280;5176;42.622;25.386;2023-07-24T05:32:06;97456.25;;;22.09;100.00
9439;BME280;5176;42.622;25.386;2023-07-24T05:34:33;97457.09;;;22.18;100.00
9439;BME280;5176;42.622;25.386;2023-07-24T05:37:00;97453.41;;;22.19;100.00
9439;BME280;5176;42.622;25.386;2023-07-24T05:39:29;97449.59;;;22.21;100.00
9439;BME280;5176;42.622;25.386;2023-07-24T05:41:57;97422.53;;;22.08;100.00
9439;BME280;5176;42.622;25.386;2023-07-24T05:44:25;97451.25;;;22.22;100.00
9439;BME280;5176;42.622;25.386;2023-07-24T05:46:53;97450.25;;;22.15;100.00
9439;BME280;5176;42.622;25.386;2023-07-24T05:49:20;97448.91;;;22.11;100.00
9439;BME280;5176;42.622;25.386;2023-07-24T05:51:47;97444.25;;;22.21;100.00
9439;BME280;5176;42.622;25.386;2023-07-24T05:54:14;97442.25;;;22.32;100.00
9439;BME280;5176;42.622;25.386;2023-07-24T05:56:42;97436.41;;;22.44;100.00
9439;BME280;5176;42.622;25.386;2023-07-24T05:59:09;97434.75;;;22.43;100.00
9439;BME280;5176;42.622;25.386;2023-07-24T06:01:38;97441.25;;;22.49;100.00
9439;BME280;5176;42.622;25.386;2023-07-24T06:04:05;97448.91;;;22.60;100.00
9439;BME280;5176;42.622;25.386;2023-07-24T06:06:33;97433.03;;;22.75;100.00
9439;BME280;5176;42.622;25.386;2023-07-24T06:09:02;97430.03;;;22.86;99.23
9439;BME280;5176;42.622;25.386;2023-07-24T06:11:30;97428.69;;;22.82;96.06
9439;BME280;5176;42.622;25.386;2023-07-24T06:13:57;97431.19;;;22.92;96.71
9439;BME280;5176;42.622;25.386;2023-07-24T06:16:24;97432.16;;;23.07;95.63
9439;BME280;5176;42.622;25.386;2023-07-24T06:18:53;97433.59;;;23.26;94.24
9439;BME280;5176;42.622;25.386;2023-07-24T06:21:20;97434.38;;;23.43;92.58
9439;BME280;5176;42.622;25.386;2023-07-24T06:23:47;97428.28;;;23.57;92.15
9439;BME280;5176;42.622;25.386;2023-07-24T06:26:15;97429.22;;;23.72;88.99
9439;BME280;5176;42.622;25.386;2023-07-24T06:28:43;97430.81;;;23.89;87.93
9439;BME280;5176;42.622;25.386;2023-07-24T06:31:10;97430.25;;;24.02;82.85
9439;BME280;5176;42.622;25.386;2023-07-24T06:33:38;97416.06;;;24.16;80.01
9439;BME280;5176;42.622;25.386;2023-07-24T06:36:10;97420.34;;;24.26;78.46
9439;BME280;5176;42.622;25.386;2023-07-24T06:38:38;97422.81;;;24.35;78.28
9439;BME280;5176;42.622;25.386;2023-07-24T06:41:05;97410.47;;;24.49;78.66
9439;BME280;5176;42.622;25.386;2023-07-24T06:43:33;97414.22;;;24.63;74.33
9439;BME280;5176;42.622;25.386;2023-07-24T06:46:00;97419.41;;;24.79;73.34
9439;BME280;5176;42.622;25.386;2023-07-24T06:48:28;97420.81;;;24.90;70.22
9439;BME280;5176;42.622;25.386;2023-07-24T06:50:55;97416.47;;;25.04;69.12
9439;BME280;5176;42.622;25.386;2023-07-24T06:53:24;97413.38;;;25.15;63.86
9439;BME280;5176;42.622;25.386;2023-07-24T06:55:51;97412.13;;;25.32;65.42
9439;BME280;5176;42.622;25.386;2023-07-24T06:58:18;97405.28;;;25.44;61.23
9439;BME280;5176;42.622;25.386;2023-07-24T07:00:46;97413.88;;;25.54;62.01
9439;BME280;5176;42.622;25.386;2023-07-24T07:03:13;97397.75;;;25.69;62.57
9439;BME280;5176;42.622;25.386;2023-07-24T07:05:40;97398.53;;;25.85;61.56
9439;BME280;5176;42.622;25.386;2023-07-24T07:08:07;97393.72;;;25.95;58.70
9439;BME280;5176;42.622;25.386;2023-07-24T07:10:36;97399.97;;;26.02;57.94
9439;BME280;5176;42.622;25.386;2023-07-24T07:13:04;97388.06;;;26.11;58.66
9439;BME280;5176;42.622;25.386;2023-07-24T07:15:31;97379.56;;;26.29;58.73
9439;BME280;5176;42.622;25.386;2023-07-24T07:17:58;97381.78;;;26.47;57.55
9439;BME280;5176;42.622;25.386;2023-07-24T07:20:25;97379.41;;;26.58;58.49
9439;BME280;5176;42.622;25.386;2023-07-24T07:22:53;97380.78;;;26.76;57.92
9439;BME280;5176;42.622;25.386;2023-07-24T07:25:20;97387.91;;;26.90;58.30
9439;BME280;5176;42.622;25.386;2023-07-24T07:27:49;97377.69;;;27.07;56.58
9439;BME280;5176;42.622;25.386;2023-07-24T07:30:16;97381.91;;;27.23;57.04
9439;BME280;5176;42.622;25.386;2023-07-24T07:32:43;97381.53;;;27.32;55.25
9439;BME280;5176;42.622;25.386;2023-07-24T07:35:11;97381.59;;;27.46;55.47
9439;BME280;5176;42.622;25.386;2023-07-24T07:37:38;97391.38;;;27.60;54.26
9439;BME280;5176;42.622;25.386;2023-07-24T07:40:07;97382.69;;;27.64;53.28
9439;BME280;5176;42.622;25.386;2023-07-24T07:42:34;97378.81;;;27.74;52.08
9439;BME280;5176;42.622;25.386;2023-07-24T07:45:03;97381.75;;;27.85;52.71
9439;BME280;5176;42.622;25.386;2023-07-24T07:47:31;97380.13;;;27.91;51.92
9439;BME280;5176;42.622;25.386;2023-07-24T07:49:58;97383.22;;;28.01;53.11
9439;BME280;5176;42.622;25.386;2023-07-24T07:52:25;97383.91;;;28.16;53.10
9439;BME280;5176;42.622;25.386;2023-07-24T07:54:53;97381.22;;;28.30;52.77
9439;BME280;5176;42.622;25.386;2023-07-24T07:57:20;97366.09;;;28.48;52.20
9439;BME280;5176;42.622;25.386;2023-07-24T07:59:47;97379.38;;;28.63;50.14
9439;BME280;5176;42.622;25.386;2023-07-24T08:02:16;97374.38;;;28.73;49.05
9439;BME280;5176;42.622;25.386;2023-07-24T08:04:44;97376.00;;;28.88;50.50
9439;BME280;5176;42.622;25.386;2023-07-24T08:07:11;97373.53;;;28.93;47.56
9439;BME280;5176;42.622;25.386;2023-07-24T08:09:38;97374.38;;;28.93;48.04
9439;BME280;5176;42.622;25.386;2023-07-24T08:12:07;97369.16;;;28.98;48.12
9439;BME280;5176;42.622;25.386;2023-07-24T08:14:34;97367.88;;;29.14;48.53
9439;BME280;5176;42.622;25.386;2023-07-24T08:17:01;97361.59;;;29.27;49.02
9439;BME280;5176;42.622;25.386;2023-07-24T08:19:30;97360.72;;;29.40;46.89
9439;BME280;5176;42.622;25.386;2023-07-24T08:21:57;97358.00;;;29.46;45.34
9439;BME280;5176;42.622;25.386;2023-07-24T08:24:25;97354.69;;;29.51;44.98
9439;BME280;5176;42.622;25.386;2023-07-24T08:26:52;97354.66;;;29.57;44.19
9439;BME280;5176;42.622;25.386;2023-07-24T08:29:19;97339.91;;;29.47;44.82
9439;BME280;5176;42.622;25.386;2023-07-24T08:31:47;97359.38;;;29.62;44.97
9439;BME280;5176;42.622;25.386;2023-07-24T08:34:14;97354.56;;;29.77;44.74
9439;BME280;5176;42.622;25.386;2023-07-24T08:36:43;97348.44;;;29.89;43.77
9439;BME280;5176;42.622;25.386;2023-07-24T08:39:10;97361.03;;;30.01;43.62
9439;BME280;5176;42.622;25.386;2023-07-24T08:41:38;97350.56;;;30.18;44.12
9439;BME280;5176;42.622;25.386;2023-07-24T08:44:07;97353.59;;;30.28;42.19
9439;BME280;5176;42.622;25.386;2023-07-24T08:46:36;97351.47;;;30.37;42.57
9439;BME280;5176;42.622;25.386;2023-07-24T08:49:04;97352.38;;;30.49;42.11
9439;BME280;5176;42.622;25.386;2023-07-24T08:51:32;97351.81;;;30.65;42.72
9439;BME280;5176;42.622;25.386;2023-07-24T08:54:01;97346.09;;;30.80;42.33
9439;BME280;5176;42.622;25.386;2023-07-24T08:56:29;97347.75;;;31.00;41.96
9439;BME280;5176;42.622;25.386;2023-07-24T08:58:57;97343.63;;;31.15;40.76
9439;BME280;5176;42.622;25.386;2023-07-24T09:01:24;97345.00;;;31.25;39.34
9439;BME280;5176;42.622;25.386;2023-07-24T09:03:52;97332.66;;;31.10;37.94
9439;BME280;5176;42.622;25.386;2023-07-24T09:06:19;97332.78;;;31.15;40.18
9439;BME280;5176;42.622;25.386;2023-07-24T09:08:47;97327.94;;;31.24;38.58
9439;BME280;5176;42.622;25.386;2023-07-24T09:11:15;97327.25;;;31.29;38.00
9439;BME280;5176;42.622;25.386;2023-07-24T09:13:43;97327.16;;;31.35;38.72
9439;BME280;5176;42.622;25.386;2023-07-24T09:16:22;97326.00;;;31.43;37.53
9439;BME280;5176;42.622;25.386;2023-07-24T09:18:50;97324.75;;;31.45;36.28
9439;BME280;5176;42.622;25.386;2023-07-24T09:21:27;97326.16;;;31.48;38.24
9439;BME280;5176;42.622;25.386;2023-07-24T09:23:55;97317.88;;;31.43;38.25
9439;BME280;5176;42.622;25.386;2023-07-24T09:26:24;97322.47;;;31.42;37.96
9439;BME280;5176;42.622;25.386;2023-07-24T09:28:52;97316.06;;;31.55;38.01
9439;BME280;5176;42.622;25.386;2023-07-24T09:31:20;97316.34;;;31.65;37.92
9439;BME280;5176;42.622;25.386;2023-07-24T09:33:47;97325.56;;;31.76;38.14
9439;BME280;5176;42.622;25.386;2023-07-24T09:36:15;97316.34;;;31.84;37.66
9439;BME280;5176;42.622;25.386;2023-07-24T09:38:42;97311.97;;;31.94;37.40
9439;BME280;5176;42.622;25.386;2023-07-24T09:41:09;97312.72;;;32.02;37.29
9439;BME280;5176;42.622;25.386;2023-07-24T09:43:39;97309.19;;;32.13;37.49
9439;BME280;5176;42.622;25.386;2023-07-24T09:46:07;97300.28;;;32.24;37.33
9439;BME280;5176;42.622;25.386;2023-07-24T09:48:35;97298.47;;;32.30;36.54
9439;BME280;5176;42.622;25.386;2023-07-24T09:51:03;97294.72;;;32.31;36.79
9439;BME280;5176;42.622;25.386;2023-07-24T09:53:33;97295.09;;;32.34;36.27
9439;BME280;5176;42.622;25.386;2023-07-24T09:56:03;97286.97;;;32.34;35.62
9439;BME280;5176;42.622;25.386;2023-07-24T09:58:33;97281.66;;;32.39;36.78
9439;BME280;5176;42.622;25.386;2023-07-24T10:01:04;97282.72;;;32.38;37.03
9439;BME280;5176;42.622;25.386;2023-07-24T10:03:34;97278.84;;;32.46;37.26
9439;BME280;5176;42.622;25.386;2023-07-24T10:06:02;97271.03;;;32.61;36.58
9439;BME280;5176;42.622;25.386;2023-07-24T10:08:30;97261.13;;;32.67;35.12
9439;BME280;5176;42.622;25.386;2023-07-24T10:10:58;97265.47;;;32.68;36.73
9439;BME280;5176;42.622;25.386;2023-07-24T10:13:26;97256.06;;;32.70;34.99
9439;BME280;5176;42.622;25.386;2023-07-24T10:15:54;97245.06;;;32.77;36.88
9439;BME280;5176;42.622;25.386;2023-07-24T10:18:28;97256.38;;;32.97;37.60
9439;BME280;5176;42.622;25.386;2023-07-24T10:21:06;97252.53;;;33.10;37.46
9439;BME280;5176;42.622;25.386;2023-07-24T10:23:34;97250.75;;;33.16;36.60
9439;BME280;5176;42.622;25.386;2023-07-24T10:26:02;97248.59;;;33.29;37.11
9439;BME280;5176;42.622;25.386;2023-07-24T10:28:32;97246.09;;;33.40;35.95
9439;BME280;5176;42.622;25.386;2023-07-24T10:31:00;97239.19;;;33.49;35.11
9439;BME280;5176;42.622;25.386;2023-07-24T10:33:31;97241.03;;;33.60;35.09
9439;BME280;5176;42.622;25.386;2023-07-24T10:36:05;97241.50;;;33.57;35.01
9439;BME280;5176;42.622;25.386;2023-07-24T10:38:37;97237.00;;;33.63;34.53
9439;BME280;5176;42.622;25.386;2023-07-24T10:41:06;97232.00;;;33.71;34.65
9439;BME280;5176;42.622;25.386;2023-07-24T10:43:41;97232.31;;;33.75;33.05
9439;BME280;5176;42.622;25.386;2023-07-24T10:46:09;97229.59;;;33.75;35.84
9439;BME280;5176;42.622;25.386;2023-07-24T10:48:42;97225.81;;;33.76;36.43
9439;BME280;5176;42.622;25.386;2023-07-24T10:51:21;97211.75;;;33.79;36.51
9439;BME280;5176;42.622;25.386;2023-07-24T10:53:49;97218.66;;;33.86;34.80
9439;BME280;5176;42.622;25.386;2023-07-24T10:56:16;97217.34;;;33.89;34.50
9439;BME280;5176;42.622;25.386;2023-07-24T10:58:44;97213.00;;;34.05;36.39
9439;BME280;5176;42.622;25.386;2023-07-24T11:01:11;97198.66;;;34.09;35.46
9439;BME280;5176;42.622;25.386;2023-07-24T11:03:41;97200.38;;;34.15;34.86
9439;BME280;5176;42.622;25.386;2023-07-24T11:06:13;97196.75;;;34.27;35.06
9439;BME280;5176;42.622;25.386;2023-07-24T11:08:51;97193.50;;;34.30;34.66
9439;BME280;5176;42.622;25.386;2023-07-24T11:11:18;97190.56;;;34.31;34.50
9439;BME280;5176;42.622;25.386;2023-07-24T11:13:45;97185.75;;;34.38;34.29
9439;BME280;5176;42.622;25.386;2023-07-24T11:16:12;97190.72;;;34.41;33.68
9439;BME280;5176;42.622;25.386;2023-07-24T11:18:47;97184.78;;;34.45;33.56
9439;BME280;5176;42.622;25.386;2023-07-24T11:21:14;97176.09;;;34.48;33.78
9439;BME280;5176;42.622;25.386;2023-07-24T11:23:48;97181.09;;;34.56;34.42
9439;BME280;5176;42.622;25.386;2023-07-24T11:26:15;97174.91;;;34.60;33.37
9439;BME280;5176;42.622;25.386;2023-07-24T11:28:45;97168.75;;;34.70;32.33
9439;BME280;5176;42.622;25.386;2023-07-24T11:31:12;97164.91;;;34.66;31.61
9439;BME280;5176;42.622;25.386;2023-07-24T11:33:41;97163.13;;;34.77;33.24
9439;BME280;5176;42.622;25.386;2023-07-24T11:36:10;97169.56;;;34.71;30.12
9439;BME280;5176;42.622;25.386;2023-07-24T11:38:38;97160.13;;;34.51;31.07
9439;BME280;5176;42.622;25.386;2023-07-24T11:41:08;97155.16;;;34.48;31.18
9439;BME280;5176;42.622;25.386;2023-07-24T11:43:45;97153.78;;;34.46;32.01
9439;BME280;5176;42.622;25.386;2023-07-24T11:46:22;97153.31;;;34.54;31.73
9439;BME280;5176;42.622;25.386;2023-07-24T11:48:50;97146.53;;;34.56;30.93
9439;BME280;5176;42.622;25.386;2023-07-24T11:51:19;97143.06;;;34.61;30.99
9439;BME280;5176;42.622;25.386;2023-07-24T11:53:46;97144.25;;;34.70;30.74
9439;BME280;5176;42.622;25.386;2023-07-24T11:56:16;97141.34;;;34.77;30.67
9439;BME280;5176;42.622;25.386;2023-07-24T11:58:44;97130.78;;;34.80;31.90
9439;BME280;5176;42.622;25.386;2023-07-24T12:01:12;97133.31;;;34.87;32.52
9439;BME280;5176;42.622;25.386;2023-07-24T12:03:40;97129.59;;;34.93;33.08
9439;BME280;5176;42.622;25.386;2023-07-24T12:06:14;97124.16;;;34.93;32.83
9439;BME280;5176;42.622;25.386;2023-07-24T12:08:42;97117.78;;;34.87;32.21
9439;BME280;5176;42.622;25.386;2023-07-24T12:11:17;97119.44;;;34.88;32.34
9439;BME280;5176;42.622;25.386;2023-07-24T12:13:45;97113.16;;;34.88;32.12
9439;BME280;5176;42.622;25.386;2023-07-24T12:16:12;97119.88;;;34.80;31.83
9439;BME280;5176;42.622;25.386;2023-07-24T12:18:39;97122.91;;;34.84;32.31
9439;BME280;5176;42.622;25.386;2023-07-24T12:21:07;97118.00;;;34.81;32.17
9439;BME280;5176;42.622;25.386;2023-07-24T12:23:34;97117.72;;;34.82;32.95
9439;BME280;5176;42.622;25.386;2023-07-24T12:26:01;97121.59;;;34.86;31.76
9439;BME280;5176;42.622;25.386;2023-07-24T12:28:30;97111.97;;;34.79;31.16
9439;BME280;5176;42.622;25.386;2023-07-24T12:30:57;97119.72;;;34.65;31.66
9439;BME280;5176;42.622;25.386;2023-07-24T12:33:25;97116.88;;;34.55;31.14
9439;BME280;5176;42.622;25.386;2023-07-24T12:35:52;97114.38;;;34.31;30.95
9439;BME280;5176;42.622;25.386;2023-07-24T12:38:20;97104.06;;;34.33;31.95
9439;BME280;5176;42.622;25.386;2023-07-24T12:40:47;97101.59;;;34.32;32.11
9439;BME280;5176;42.622;25.386;2023-07-24T12:43:15;97101.81;;;34.30;32.33
9439;BME280;5176;42.622;25.386;2023-07-24T12:45:44;97101.81;;;34.30;33.15
9439;BME280;5176;42.622;25.386;2023-07-24T12:48:11;97090.56;;;34.22;33.47
9439;BME280;5176;42.622;25.386;2023-07-24T12:50:39;97083.09;;;34.12;33.55
9439;BME280;5176;42.622;25.386;2023-07-24T12:53:06;97087.66;;;34.06;33.75
9439;BME280;5176;42.622;25.386;2023-07-24T12:55:33;97089.56;;;34.06;33.97
9439;BME280;5176;42.622;25.386;2023-07-24T12:58:00;97086.69;;;33.96;33.87
9439;BME280;5176;42.622;25.386;2023-07-24T13:00:29;97085.03;;;33.95;33.64
9439;BME280;5176;42.622;25.386;2023-07-24T13:02:59;97076.94;;;33.83;32.51
9439;BME280;5176;42.622;25.386;2023-07-24T13:05:26;97075.09;;;33.67;32.74
9439;BME280;5176;42.622;25.386;2023-07-24T13:07:53;97079.63;;;33.61;32.88
9439;BME280;5176;42.622;25.386;2023-07-24T13:10:20;97071.28;;;33.68;33.54
9439;BME280;5176;42.622;25.386;2023-07-24T13:12:48;97071.69;;;33.76;32.93